sensor_id;sensor_type;location;lat;lon;timestamp;P1;durP1;ratioP1;P2;durP2;ratioP2
17201;SDS011;8717;53.588;10.176;2024-03-23T00:55:52;23.40;;;4.70;;
17201;SDS011;8717;53.588;10.176;2024-03-23T00:58:18;23.47;;;6.03;;
17201;SDS011;8717;53.588;10.176;2024-03-23T01:00:43;23.60;;;5.23;;
17201;SDS011;8717;53.588;10.176;2024-03-23T01:03:09;28.33;;;5.73;;
17201;SDS011;8717;53.588;10.176;2024-03-23T01:05:35;19.90;;;5.27;;
17201;SDS011;8717;53.588;10.176;2024-03-23T01:08:00;21.80;;;5.03;;
17201;SDS011;8717;53.588;10.176;2024-03-23T01:10:26;20.37;;;5.43;;
17201;SDS011;8717;53.588;10.176;2024-03-23T01:12:51;19.90;;;5.17;;
17201;SDS011;8717;53.588;10.176;2024-03-23T01:15:17;23.20;;;6.27;;
17201;SDS011;8717;53.588;10.176;2024-03-23T01:17:42;28.87;;;5.17;;
17201;SDS011;8717;53.588;10.176;2024-03-23T01:20:07;20.20;;;4.90;;
17201;SDS011;8717;53.588;10.176;2024-03-23T01:22:33;16.17;;;4.30;;
17201;SDS011;8717;53.588;10.176;2024-03-23T01:24:59;20.80;;;5.20;;
17201;SDS011;8717;53.588;10.176;2024-03-23T01:27:24;23.37;;;5.00;;
17201;SDS011;8717;53.588;10.176;2024-03-23T01:29:50;19.80;;;5.03;;
17201;SDS011;8717;53.588;10.176;2024-03-23T01:32:15;22.97;;;5.57;;
17201;SDS011;8717;53.588;10.176;2024-03-23T01:34:41;24.93;;;5.00;;
17201;SDS011;8717;53.588;10.176;2024-03-23T01:37:06;22.33;;;5.50;;
17201;SDS011;8717;53.588;10.176;2024-03-23T01:39:32;29.00;;;5.53;;
17201;SDS011;8717;53.588;10.176;2024-03-23T01:41:57;21.23;;;5.20;;
17201;SDS011;8717;53.588;10.176;2024-03-23T01:44:23;18.93;;;4.53;;
17201;SDS011;8717;53.588;10.176;2024-03-23T01:46:49;18.10;;;4.73;;
17201;SDS011;8717;53.588;10.176;2024-03-23T01:49:14;20.77;;;5.23;;
17201;SDS011;8717;53.588;10.176;2024-03-23T01:51:41;19.27;;;5.37;;
17201;SDS011;8717;53.588;10.176;2024-03-23T01:54:07;23.77;;;5.10;;
17201;SDS011;8717;53.588;10.176;2024-03-23T01:56:33;18.70;;;4.40;;
17201;SDS011;8717;53.588;10.176;2024-03-23T01:58:59;25.50;;;4.53;;
17201;SDS011;8717;53.588;10.176;2024-03-23T02:01:25;21.60;;;4.77;;
17201;SDS011;8717;53.588;10.176;2024-03-23T02:03:50;24.23;;;5.17;;
17201;SDS011;8717;53.588;10.176;2024-03-23T02:06:16;24.77;;;5.03;;
17201;SDS011;8717;53.588;10.176;2024-03-23T02:08:41;22.33;;;4.57;;
17201;SDS011;8717;53.588;10.176;2024-03-23T02:11:08;19.37;;;5.43;;
17201;SDS011;8717;53.588;10.176;2024-03-23T02:13:34;23.53;;;4.60;;
17201;SDS011;8717;53.588;10.176;2024-03-23T02:15:59;24.17;;;5.67;;
17201;SDS011;8717;53.588;10.176;2024-03-23T02:18:25;23.03;;;5.33;;
17201;SDS011;8717;53.588;10.176;2024-03-23T02:20:50;23.87;;;5.47;;
17201;SDS011;8717;53.588;10.176;2024-03-23T02:23:16;25.00;;;6.13;;
17201;SDS011;8717;53.588;10.176;2024-03-23T02:25:42;20.57;;;4.37;;
17201;SDS011;8717;53.588;10.176;2024-03-23T02:28:08;22.67;;;4.77;;
17201;SDS011;8717;53.588;10.176;2024-03-23T02:30:33;23.03;;;5.47;;
17201;SDS011;8717;53.588;10.176;2024-03-23T02:32:59;19.13;;;4.23;;
17201;SDS011;8717;53.588;10.176;2024-03-23T02:35:24;23.70;;;5.40;;
17201;SDS011;8717;53.588;10.176;2024-03-23T02:37:50;20.60;;;5.13;;
17201;SDS011;8717;53.588;10.176;2024-03-23T02:40:19;19.27;;;5.20;;
17201;SDS011;8717;53.588;10.176;2024-03-23T02:42:45;22.17;;;5.37;;
17201;SDS011;8717;53.588;10.176;2024-03-23T02:45:10;26.67;;;5.20;;
17201;SDS011;8717;53.588;10.176;2024-03-23T02:47:36;21.73;;;4.87;;
17201;SDS011;8717;53.588;10.176;2024-03-23T02:50:01;22.50;;;4.77;;
17201;SDS011;8717;53.588;10.176;2024-03-23T02:52:27;21.37;;;4.80;;
17201;SDS011;8717;53.588;10.176;2024-03-23T02:54:52;17.27;;;4.20;;
17201;SDS011;8717;53.588;10.176;2024-03-23T02:57:18;26.57;;;5.37;;
17201;SDS011;8717;53.588;10.176;2024-03-23T02:59:43;23.50;;;5.47;;
17201;SDS011;8717;53.588;10.176;2024-03-23T03:02:09;18.27;;;4.50;;
17201;SDS011;8717;53.588;10.176;2024-03-23T03:04:34;24.27;;;5.40;;
17201;SDS011;8717;53.588;10.176;2024-03-23T03:07:00;20.03;;;5.57;;
17201;SDS011;8717;53.588;10.176;2024-03-23T03:09:25;23.73;;;5.43;;
17201;SDS011;8717;53.588;10.176;2024-03-23T03:11:51;22.67;;;5.93;;
17201;SDS011;8717;53.588;10.176;2024-03-23T03:14:16;19.83;;;5.90;;
17201;SDS011;8717;53.588;10.176;2024-03-23T03:16:42;21.27;;;5.40;;
17201;SDS011;8717;53.588;10.176;2024-03-23T03:19:07;20.93;;;5.50;;
17201;SDS011;8717;53.588;10.176;2024-03-23T03:21:33;18.80;;;5.50;;
17201;SDS011;8717;53.588;10.176;2024-03-23T03:23:58;19.90;;;5.20;;
17201;SDS011;8717;53.588;10.176;2024-03-23T03:26:24;22.73;;;5.43;;
17201;SDS011;8717;53.588;10.176;2024-03-23T03:28:50;22.23;;;4.83;;
17201;SDS011;8717;53.588;10.176;2024-03-23T03:31:15;23.00;;;5.53;;
17201;SDS011;8717;53.588;10.176;2024-03-23T03:33:41;19.03;;;4.23;;
17201;SDS011;8717;53.588;10.176;2024-03-23T03:36:07;24.53;;;5.10;;
17201;SDS011;8717;53.588;10.176;2024-03-23T03:38:33;26.70;;;4.93;;
17201;SDS011;8717;53.588;10.176;2024-03-23T03:40:58;22.27;;;4.97;;
17201;SDS011;8717;53.588;10.176;2024-03-23T03:43:24;19.93;;;5.00;;
17201;SDS011;8717;53.588;10.176;2024-03-23T03:45:53;20.47;;;4.50;;
17201;SDS011;8717;53.588;10.176;2024-03-23T03:48:19;20.30;;;4.73;;
17201;SDS011;8717;53.588;10.176;2024-03-23T03:50:44;20.17;;;4.93;;
17201;SDS011;8717;53.588;10.176;2024-03-23T03:53:10;22.63;;;5.90;;
17201;SDS011;8717;53.588;10.176;2024-03-23T03:55:35;23.43;;;5.07;;
17201;SDS011;8717;53.588;10.176;2024-03-23T03:58:01;23.03;;;5.07;;
17201;SDS011;8717;53.588;10.176;2024-03-23T04:00:27;17.10;;;4.53;;
17201;SDS011;8717;53.588;10.176;2024-03-23T04:02:52;18.57;;;4.63;;
17201;SDS011;8717;53.588;10.176;2024-03-23T04:05:18;16.40;;;4.63;;
17201;SDS011;8717;53.588;10.176;2024-03-23T04:07:43;21.63;;;4.67;;
17201;SDS011;8717;53.588;10.176;2024-03-23T04:10:09;22.17;;;5.73;;
17201;SDS011;8717;53.588;10.176;2024-03-23T04:12:35;20.63;;;5.00;;
17201;SDS011;8717;53.588;10.176;2024-03-23T04:15:00;16.40;;;4.27;;
17201;SDS011;8717;53.588;10.176;2024-03-23T04:17:26;24.80;;;5.47;;
17201;SDS011;8717;53.588;10.176;2024-03-23T04:19:52;22.67;;;4.50;;
17201;SDS011;8717;53.588;10.176;2024-03-23T04:22:17;21.53;;;4.57;;
17201;SDS011;8717;53.588;10.176;2024-03-23T04:24:43;23.13;;;4.17;;
17201;SDS011;8717;53.588;10.176;2024-03-23T04:27:08;20.23;;;4.70;;
17201;SDS011;8717;53.588;10.176;2024-03-23T04:29:34;19.77;;;4.57;;
17201;SDS011;8717;53.588;10.176;2024-03-23T04:31:59;23.17;;;5.80;;
17201;SDS011;8717;53.588;10.176;2024-03-23T04:34:25;25.63;;;4.50;;
17201;SDS011;8717;53.588;10.176;2024-03-23T04:36:52;14.03;;;4.20;;
17201;SDS011;8717;53.588;10.176;2024-03-23T04:39:18;16.60;;;4.50;;
17201;SDS011;8717;53.588;10.176;2024-03-23T04:41:43;17.73;;;4.20;;
17201;SDS011;8717;53.588;10.176;2024-03-23T04:44:09;19.67;;;4.53;;
17201;SDS011;8717;53.588;10.176;2024-03-23T04:46:34;18.60;;;4.37;;
17201;SDS011;8717;53.588;10.176;2024-03-23T04:49:00;22.07;;;4.27;;
17201;SDS011;8717;53.588;10.176;2024-03-23T04:51:25;18.50;;;4.37;;
17201;SDS011;8717;53.588;10.176;2024-03-23T04:53:51;18.23;;;4.07;;
17201;SDS011;8717;53.588;10.176;2024-03-23T04:56:17;18.20;;;4.40;;
17201;SDS011;8717;53.588;10.176;2024-03-23T04:58:43;20.73;;;4.30;;
17201;SDS011;8717;53.588;10.176;2024-03-23T05:01:08;19.90;;;4.23;;
17201;SDS011;8717;53.588;10.176;2024-03-23T05:03:36;23.03;;;4.43;;
17201;SDS011;8717;53.588;10.176;2024-03-23T05:06:02;19.53;;;4.33;;
17201;SDS011;8717;53.588;10.176;2024-03-23T05:08:28;18.93;;;4.17;;
17201;SDS011;8717;53.588;10.176;2024-03-23T05:10:53;23.37;;;4.20;;
17201;SDS011;8717;53.588;10.176;2024-03-23T05:13:19;20.57;;;5.27;;
17201;SDS011;8717;53.588;10.176;2024-03-23T05:15:50;21.03;;;4.40;;
17201;SDS011;8717;53.588;10.176;2024-03-23T05:18:17;18.43;;;4.30;;
17201;SDS011;8717;53.588;10.176;2024-03-23T05:20:42;20.60;;;3.93;;
17201;SDS011;8717;53.588;10.176;2024-03-23T05:23:08;20.10;;;4.43;;
17201;SDS011;8717;53.588;10.176;2024-03-23T05:25:33;17.47;;;4.83;;
17201;SDS011;8717;53.588;10.176;2024-03-23T05:27:59;18.17;;;4.50;;
17201;SDS011;8717;53.588;10.176;2024-03-23T05:30:24;19.93;;;4.33;;
17201;SDS011;8717;53.588;10.176;2024-03-23T05:32:50;16.63;;;4.40;;
17201;SDS011;8717;53.588;10.176;2024-03-23T05:35:15;17.93;;;3.60;;
17201;SDS011;8717;53.588;10.176;2024-03-23T05:37:41;12.87;;;4.40;;
17201;SDS011;8717;53.588;10.176;2024-03-23T05:40:06;15.53;;;4.73;;
17201;SDS011;8717;53.588;10.176;2024-03-23T05:42:32;15.70;;;3.97;;
17201;SDS011;8717;53.588;10.176;2024-03-23T05:44:57;18.80;;;4.20;;
17201;SDS011;8717;53.588;10.176;2024-03-23T05:47:23;20.17;;;4.60;;
17201;SDS011;8717;53.588;10.176;2024-03-23T05:49:48;19.87;;;5.27;;
17201;SDS011;8717;53.588;10.176;2024-03-23T05:52:14;19.83;;;4.60;;
17201;SDS011;8717;53.588;10.176;2024-03-23T05:54:39;18.93;;;4.43;;
17201;SDS011;8717;53.588;10.176;2024-03-23T05:57:05;21.03;;;5.00;;
17201;SDS011;8717;53.588;10.176;2024-03-23T05:59:31;23.60;;;4.60;;
17201;SDS011;8717;53.588;10.176;2024-03-23T06:01:56;21.70;;;5.77;;
17201;SDS011;8717;53.588;10.176;2024-03-23T06:04:22;18.50;;;4.80;;
17201;SDS011;8717;53.588;10.176;2024-03-23T06:06:48;21.57;;;4.47;;
17201;SDS011;8717;53.588;10.176;2024-03-23T06:09:13;15.60;;;4.23;;
17201;SDS011;8717;53.588;10.176;2024-03-23T06:11:39;22.67;;;5.13;;
17201;SDS011;8717;53.588;10.176;2024-03-23T06:14:04;14.47;;;4.30;;
17201;SDS011;8717;53.588;10.176;2024-03-23T06:16:30;16.40;;;4.73;;
17201;SDS011;8717;53.588;10.176;2024-03-23T06:18:55;20.40;;;4.33;;
17201;SDS011;8717;53.588;10.176;2024-03-23T06:21:21;23.40;;;4.73;;
17201;SDS011;8717;53.588;10.176;2024-03-23T06:23:47;18.67;;;4.63;;
17201;SDS011;8717;53.588;10.176;2024-03-23T06:26:12;17.30;;;4.70;;
17201;SDS011;8717;53.588;10.176;2024-03-23T06:28:38;20.00;;;4.60;;
17201;SDS011;8717;53.588;10.176;2024-03-23T06:31:04;17.57;;;4.53;;
17201;SDS011;8717;53.588;10.176;2024-03-23T06:33:34;16.67;;;5.00;;
17201;SDS011;8717;53.588;10.176;2024-03-23T06:36:00;21.63;;;4.70;;
17201;SDS011;8717;53.588;10.176;2024-03-23T06:38:25;21.97;;;4.60;;
17201;SDS011;8717;53.588;10.176;2024-03-23T06:40:51;17.97;;;4.80;;
17201;SDS011;8717;53.588;10.176;2024-03-23T06:43:16;21.90;;;5.17;;
17201;SDS011;8717;53.588;10.176;2024-03-23T06:45:42;19.83;;;4.60;;
17201;SDS011;8717;53.588;10.176;2024-03-23T06:48:07;16.10;;;4.63;;
17201;SDS011;8717;53.588;10.176;2024-03-23T06:50:33;18.27;;;4.73;;
17201;SDS011;8717;53.588;10.176;2024-03-23T06:52:59;16.83;;;4.30;;
17201;SDS011;8717;53.588;10.176;2024-03-23T06:55:25;20.43;;;4.80;;
17201;SDS011;8717;53.588;10.176;2024-03-23T06:57:50;22.17;;;4.90;;
17201;SDS011;8717;53.588;10.176;2024-03-23T07:00:16;18.07;;;4.40;;
17201;SDS011;8717;53.588;10.176;2024-03-23T07:02:41;16.30;;;4.73;;
17201;SDS011;8717;53.588;10.176;2024-03-23T07:05:07;17.40;;;4.80;;
17201;SDS011;8717;53.588;10.176;2024-03-23T07:07:32;18.20;;;3.90;;
17201;SDS011;8717;53.588;10.176;2024-03-23T07:09:58;15.77;;;4.73;;
17201;SDS011;8717;53.588;10.176;2024-03-23T07:12:23;17.07;;;4.33;;
17201;SDS011;8717;53.588;10.176;2024-03-23T07:14:49;14.30;;;4.37;;
17201;SDS011;8717;53.588;10.176;2024-03-23T07:17:14;13.53;;;3.67;;
17201;SDS011;8717;53.588;10.176;2024-03-23T07:19:40;20.57;;;4.30;;
17201;SDS011;8717;53.588;10.176;2024-03-23T07:22:05;20.27;;;4.37;;
17201;SDS011;8717;53.588;10.176;2024-03-23T07:24:31;21.43;;;4.37;;
17201;SDS011;8717;53.588;10.176;2024-03-23T07:26:56;15.67;;;4.70;;
17201;SDS011;8717;53.588;10.176;2024-03-23T07:29:22;17.53;;;4.30;;
17201;SDS011;8717;53.588;10.176;2024-03-23T07:31:47;14.20;;;4.33;;
17201;SDS011;8717;53.588;10.176;2024-03-23T07:34:13;19.33;;;4.30;;
17201;SDS011;8717;53.588;10.176;2024-03-23T07:36:38;17.17;;;4.57;;
17201;SDS011;8717;53.588;10.176;2024-03-23T07:39:03;16.73;;;3.73;;
17201;SDS011;8717;53.588;10.176;2024-03-23T07:41:29;12.30;;;3.73;;
17201;SDS011;8717;53.588;10.176;2024-03-23T07:43:54;17.87;;;4.27;;
17201;SDS011;8717;53.588;10.176;2024-03-23T07:46:20;15.80;;;3.80;;
17201;SDS011;8717;53.588;10.176;2024-03-23T07:48:46;17.63;;;5.00;;
17201;SDS011;8717;53.588;10.176;2024-03-23T07:51:15;13.77;;;4.10;;
17201;SDS011;8717;53.588;10.176;2024-03-23T07:53:43;14.97;;;3.60;;
17201;SDS011;8717;53.588;10.176;2024-03-23T07:56:10;19.67;;;4.80;;
17201;SDS011;8717;53.588;10.176;2024-03-23T07:58:36;14.93;;;4.33;;
17201;SDS011;8717;53.588;10.176;2024-03-23T08:01:05;14.33;;;3.97;;
17201;SDS011;8717;53.588;10.176;2024-03-23T08:03:31;14.70;;;3.73;;
17201;SDS011;8717;53.588;10.176;2024-03-23T08:05:57;14.83;;;3.60;;
17201;SDS011;8717;53.588;10.176;2024-03-23T08:08:22;13.83;;;3.67;;
17201;SDS011;8717;53.588;10.176;2024-03-23T08:10:48;21.40;;;4.83;;
17201;SDS011;8717;53.588;10.176;2024-03-23T08:13:17;14.63;;;4.50;;
17201;SDS011;8717;53.588;10.176;2024-03-23T08:15:44;15.97;;;3.60;;
17201;SDS011;8717;53.588;10.176;2024-03-23T08:18:12;17.23;;;4.17;;
17201;SDS011;8717;53.588;10.176;2024-03-23T08:20:38;15.87;;;3.80;;
17201;SDS011;8717;53.588;10.176;2024-03-23T08:23:07;15.10;;;4.10;;
17201;SDS011;8717;53.588;10.176;2024-03-23T08:25:33;16.47;;;4.07;;
17201;SDS011;8717;53.588;10.176;2024-03-23T08:27:59;17.23;;;4.40;;
17201;SDS011;8717;53.588;10.176;2024-03-23T08:30:25;14.60;;;3.87;;
17201;SDS011;8717;53.588;10.176;2024-03-23T08:32:51;14.47;;;4.17;;
17201;SDS011;8717;53.588;10.176;2024-03-23T08:35:17;16.23;;;4.43;;
17201;SDS011;8717;53.588;10.176;2024-03-23T08:37:42;13.70;;;3.87;;
17201;SDS011;8717;53.588;10.176;2024-03-23T08:40:08;11.10;;;3.30;;
17201;SDS011;8717;53.588;10.176;2024-03-23T08:42:34;14.70;;;4.03;;
17201;SDS011;8717;53.588;10.176;2024-03-23T08:45:00;12.57;;;3.63;;
17201;SDS011;8717;53.588;10.176;2024-03-23T08:47:26;12.33;;;3.57;;
17201;SDS011;8717;53.588;10.176;2024-03-23T08:49:51;11.73;;;4.03;;
17201;SDS011;8717;53.588;10.176;2024-03-23T08:52:17;17.87;;;3.93;;
17201;SDS011;8717;53.588;10.176;2024-03-23T08:54:42;11.93;;;4.00;;
17201;SDS011;8717;53.588;10.176;2024-03-23T08:57:08;14.13;;;3.50;;
17201;SDS011;8717;53.588;10.176;2024-03-23T08:59:34;12.77;;;3.60;;
17201;SDS011;8717;53.588;10.176;2024-03-23T09:01:59;12.23;;;4.13;;
17201;SDS011;8717;53.588;10.176;2024-03-23T09:04:25;11.37;;;3.67;;
17201;SDS011;8717;53.588;10.176;2024-03-23T09:06:51;13.30;;;3.97;;
17201;SDS011;8717;53.588;10.176;2024-03-23T09:09:16;12.43;;;4.03;;
17201;SDS011;8717;53.588;10.176;2024-03-23T09:11:42;10.97;;;3.27;;
17201;SDS011;8717;53.588;10.176;2024-03-23T09:14:07;14.67;;;3.20;;
17201;SDS011;8717;53.588;10.176;2024-03-23T09:16:33;9.87;;;3.33;;
17201;SDS011;8717;53.588;10.176;2024-03-23T09:18:58;11.67;;;3.17;;
17201;SDS011;8717;53.588;10.176;2024-03-23T09:21:24;15.27;;;3.87;;
17201;SDS011;8717;53.588;10.176;2024-03-23T09:23:49;13.33;;;2.83;;
17201;SDS011;8717;53.588;10.176;2024-03-23T09:26:15;10.43;;;3.07;;
17201;SDS011;8717;53.588;10.176;2024-03-23T09:28:40;10.37;;;3.03;;
17201;SDS011;8717;53.588;10.176;2024-03-23T09:31:06;9.97;;;3.43;;
17201;SDS011;8717;53.588;10.176;2024-03-23T09:33:36;9.97;;;2.97;;
17201;SDS011;8717;53.588;10.176;2024-03-23T09:36:04;8.63;;;2.47;;
17201;SDS011;8717;53.588;10.176;2024-03-23T09:38:31;10.57;;;2.57;;
17201;SDS011;8717;53.588;10.176;2024-03-23T09:40:56;12.80;;;3.43;;
17201;SDS011;8717;53.588;10.176;2024-03-23T09:43:22;13.00;;;2.77;;
17201;SDS011;8717;53.588;10.176;2024-03-23T09:45:48;10.40;;;2.90;;
17201;SDS011;8717;53.588;10.176;2024-03-23T09:48:14;8.60;;;2.47;;
17201;SDS011;8717;53.588;10.176;2024-03-23T09:50:41;10.20;;;3.10;;
17201;SDS011;8717;53.588;10.176;2024-03-23T09:53:09;12.83;;;3.03;;
17201;SDS011;8717;53.588;10.176;2024-03-23T09:55:36;10.67;;;2.97;;
17201;SDS011;8717;53.588;10.176;2024-03-23T09:58:02;11.07;;;2.70;;
17201;SDS011;8717;53.588;10.176;2024-03-23T10:00:28;8.80;;;2.33;;
17201;SDS011;8717;53.588;10.176;2024-03-23T10:02:56;8.87;;;2.30;;
17201;SDS011;8717;53.588;10.176;2024-03-23T10:05:23;9.47;;;2.47;;
17201;SDS011;8717;53.588;10.176;2024-03-23T10:07:52;9.43;;;2.57;;
17201;SDS011;8717;53.588;10.176;2024-03-23T10:10:17;8.93;;;2.53;;
17201;SDS011;8717;53.588;10.176;2024-03-23T10:12:47;9.37;;;3.00;;
17201;SDS011;8717;53.588;10.176;2024-03-23T10:15:15;10.37;;;2.70;;
17201;SDS011;8717;53.588;10.176;2024-03-23T10:17:44;7.90;;;2.20;;
17201;SDS011;8717;53.588;10.176;2024-03-23T10:20:09;12.70;;;3.20;;
17201;SDS011;8717;53.588;10.176;2024-03-23T10:22:36;12.10;;;2.83;;
17201;SDS011;8717;53.588;10.176;2024-03-23T10:25:10;8.67;;;2.40;;
17201;SDS011;8717;53.588;10.176;2024-03-23T10:27:36;7.67;;;2.10;;
17201;SDS011;8717;53.588;10.176;2024-03-23T10:30:12;10.83;;;2.70;;
17201;SDS011;8717;53.588;10.176;2024-03-23T10:32:38;8.40;;;3.03;;
17201;SDS011;8717;53.588;10.176;2024-03-23T10:35:14;8.83;;;2.30;;
17201;SDS011;8717;53.588;10.176;2024-03-23T10:37:44;10.17;;;2.67;;
17201;SDS011;8717;53.588;10.176;2024-03-23T10:40:11;9.13;;;2.87;;
17201;SDS011;8717;53.588;10.176;2024-03-23T10:42:37;8.33;;;2.70;;
17201;SDS011;8717;53.588;10.176;2024-03-23T10:45:04;8.67;;;2.93;;
17201;SDS011;8717;53.588;10.176;2024-03-23T10:47:31;8.80;;;2.27;;
17201;SDS011;8717;53.588;10.176;2024-03-23T10:49:57;6.83;;;2.37;;
17201;SDS011;8717;53.588;10.176;2024-03-23T10:52:22;11.40;;;3.33;;
17201;SDS011;8717;53.588;10.176;2024-03-23T10:54:48;9.60;;;2.50;;
17201;SDS011;8717;53.588;10.176;2024-03-23T10:57:17;10.90;;;2.50;;
17201;SDS011;8717;53.588;10.176;2024-03-23T10:59:48;8.73;;;2.50;;
17201;SDS011;8717;53.588;10.176;2024-03-23T11:02:20;8.00;;;2.40;;
17201;SDS011;8717;53.588;10.176;2024-03-23T11:04:46;7.33;;;2.20;;
17201;SDS011;8717;53.588;10.176;2024-03-23T11:09:50;7.20;;;1.90;;
17201;SDS011;8717;53.588;10.176;2024-03-23T11:14:47;7.10;;;1.83;;
17201;SDS011;8717;53.588;10.176;2024-03-23T11:17:17;6.93;;;2.57;;
17201;SDS011;8717;53.588;10.176;2024-03-23T11:19:44;8.87;;;2.60;;
17201;SDS011;8717;53.588;10.176;2024-03-23T11:22:09;12.27;;;2.77;;
17201;SDS011;8717;53.588;10.176;2024-03-23T11:24:35;8.50;;;2.07;;
17201;SDS011;8717;53.588;10.176;2024-03-23T11:27:00;10.47;;;2.80;;
17201;SDS011;8717;53.588;10.176;2024-03-23T11:29:26;6.83;;;2.10;;
17201;SDS011;8717;53.588;10.176;2024-03-23T11:31:52;9.27;;;2.67;;
17201;SDS011;8717;53.588;10.176;2024-03-23T11:34:21;9.13;;;2.20;;
17201;SDS011;8717;53.588;10.176;2024-03-23T11:36:47;6.67;;;2.30;;
17201;SDS011;8717;53.588;10.176;2024-03-23T11:39:13;5.80;;;2.30;;
17201;SDS011;8717;53.588;10.176;2024-03-23T11:41:49;6.90;;;2.30;;
17201;SDS011;8717;53.588;10.176;2024-03-23T11:44:19;9.13;;;2.30;;
17201;SDS011;8717;53.588;10.176;2024-03-23T11:46:48;9.00;;;1.97;;
17201;SDS011;8717;53.588;10.176;2024-03-23T11:49:26;4.57;;;1.37;;
17201;SDS011;8717;53.588;10.176;2024-03-23T11:51:54;5.43;;;1.70;;
17201;SDS011;8717;53.588;10.176;2024-03-23T11:54:21;4.63;;;1.73;;
17201;SDS011;8717;53.588;10.176;2024-03-23T11:56:55;6.37;;;1.70;;
17201;SDS011;8717;53.588;10.176;2024-03-23T11:59:36;6.07;;;1.90;;
17201;SDS011;8717;53.588;10.176;2024-03-23T12:02:10;7.60;;;2.07;;
17201;SDS011;8717;53.588;10.176;2024-03-23T12:04:37;4.73;;;1.80;;
17201;SDS011;8717;53.588;10.176;2024-03-23T12:07:15;6.53;;;2.07;;
17201;SDS011;8717;53.588;10.176;2024-03-23T12:09:42;6.03;;;1.90;;
17201;SDS011;8717;53.588;10.176;2024-03-23T12:12:12;6.87;;;2.30;;
17201;SDS011;8717;53.588;10.176;2024-03-23T12:14:44;6.57;;;1.87;;
17201;SDS011;8717;53.588;10.176;2024-03-23T12:17:25;4.67;;;1.30;;
17201;SDS011;8717;53.588;10.176;2024-03-23T12:19:51;4.03;;;1.00;;
17201;SDS011;8717;53.588;10.176;2024-03-23T12:22:16;2.77;;;0.87;;
17201;SDS011;8717;53.588;10.176;2024-03-23T12:24:45;1.87;;;0.90;;
17201;SDS011;8717;53.588;10.176;2024-03-23T12:27:11;2.10;;;1.00;;
17201;SDS011;8717;53.588;10.176;2024-03-23T12:29:36;2.40;;;0.80;;
17201;SDS011;8717;53.588;10.176;2024-03-23T12:32:02;3.03;;;0.90;;
17201;SDS011;8717;53.588;10.176;2024-03-23T12:34:28;3.30;;;0.90;;
17201;SDS011;8717;53.588;10.176;2024-03-23T12:36:54;2.83;;;0.90;;
17201;SDS011;8717;53.588;10.176;2024-03-23T12:39:19;4.50;;;1.00;;
17201;SDS011;8717;53.588;10.176;2024-03-23T12:41:45;2.40;;;0.90;;
17201;SDS011;8717;53.588;10.176;2024-03-23T12:44:11;5.20;;;2.20;;
17201;SDS011;8717;53.588;10.176;2024-03-23T12:46:36;4.57;;;1.33;;
17201;SDS011;8717;53.588;10.176;2024-03-23T12:49:02;4.03;;;1.20;;
17201;SDS011;8717;53.588;10.176;2024-03-23T12:51:28;3.13;;;1.10;;
17201;SDS011;8717;53.588;10.176;2024-03-23T12:53:53;2.97;;;1.27;;
17201;SDS011;8717;53.588;10.176;2024-03-23T12:56:19;1.93;;;0.70;;
17201;SDS011;8717;53.588;10.176;2024-03-23T12:58:44;1.50;;;0.50;;
17201;SDS011;8717;53.588;10.176;2024-03-23T13:01:10;1.57;;;0.60;;
17201;SDS011;8717;53.588;10.176;2024-03-23T13:03:35;2.33;;;0.50;;
17201;SDS011;8717;53.588;10.176;2024-03-23T13:06:01;2.33;;;0.57;;
17201;SDS011;8717;53.588;10.176;2024-03-23T13:08:26;0.90;;;0.50;;
17201;SDS011;8717;53.588;10.176;2024-03-23T13:10:52;0.77;;;0.40;;
17201;SDS011;8717;53.588;10.176;2024-03-23T13:13:18;2.03;;;0.80;;
17201;SDS011;8717;53.588;10.176;2024-03-23T13:15:49;2.40;;;0.70;;
17201;SDS011;8717;53.588;10.176;2024-03-23T13:18:15;2.50;;;1.10;;
17201;SDS011;8717;53.588;10.176;2024-03-23T13:20:40;3.80;;;0.90;;
17201;SDS011;8717;53.588;10.176;2024-03-23T13:23:06;1.87;;;0.80;;
17201;SDS011;8717;53.588;10.176;2024-03-23T13:25:31;4.50;;;1.00;;
17201;SDS011;8717;53.588;10.176;2024-03-23T13:27:57;3.47;;;1.00;;
17201;SDS011;8717;53.588;10.176;2024-03-23T13:30:22;2.20;;;0.80;;
17201;SDS011;8717;53.588;10.176;2024-03-23T13:32:48;2.07;;;0.87;;
17201;SDS011;8717;53.588;10.176;2024-03-23T13:35:13;2.53;;;0.87;;
17201;SDS011;8717;53.588;10.176;2024-03-23T13:37:39;4.93;;;0.90;;
17201;SDS011;8717;53.588;10.176;2024-03-23T13:40:05;4.03;;;1.33;;
17201;SDS011;8717;53.588;10.176;2024-03-23T13:42:31;3.93;;;1.10;;
17201;SDS011;8717;53.588;10.176;2024-03-23T13:44:57;5.43;;;1.60;;
17201;SDS011;8717;53.588;10.176;2024-03-23T13:47:22;4.60;;;1.77;;
17201;SDS011;8717;53.588;10.176;2024-03-23T13:49:48;5.73;;;1.40;;
17201;SDS011;8717;53.588;10.176;2024-03-23T13:52:13;5.23;;;1.63;;
17201;SDS011;8717;53.588;10.176;2024-03-23T13:54:39;5.07;;;2.00;;
17201;SDS011;8717;53.588;10.176;2024-03-23T13:57:04;4.03;;;1.47;;
17201;SDS011;8717;53.588;10.176;2024-03-23T13:59:30;3.77;;;1.40;;
17201;SDS011;8717;53.588;10.176;2024-03-23T14:01:55;3.57;;;1.50;;
17201;SDS011;8717;53.588;10.176;2024-03-23T14:04:21;6.50;;;1.43;;
17201;SDS011;8717;53.588;10.176;2024-03-23T14:06:46;5.87;;;1.80;;
17201;SDS011;8717;53.588;10.176;2024-03-23T14:09:15;4.90;;;1.10;;
17201;SDS011;8717;53.588;10.176;2024-03-23T14:11:41;3.10;;;1.20;;
17201;SDS011;8717;53.588;10.176;2024-03-23T14:14:06;3.33;;;1.40;;
17201;SDS011;8717;53.588;10.176;2024-03-23T14:16:32;3.13;;;1.30;;
17201;SDS011;8717;53.588;10.176;2024-03-23T14:18:57;3.37;;;1.10;;
17201;SDS011;8717;53.588;10.176;2024-03-23T14:21:23;3.13;;;0.87;;
17201;SDS011;8717;53.588;10.176;2024-03-23T14:23:48;1.87;;;1.07;;
17201;SDS011;8717;53.588;10.176;2024-03-23T14:26:15;4.90;;;1.30;;
17201;SDS011;8717;53.588;10.176;2024-03-23T14:28:40;3.60;;;1.10;;
17201;SDS011;8717;53.588;10.176;2024-03-23T14:31:06;3.07;;;1.17;;
17201;SDS011;8717;53.588;10.176;2024-03-23T14:33:31;2.47;;;1.17;;
17201;SDS011;8717;53.588;10.176;2024-03-23T14:35:57;2.60;;;1.07;;
17201;SDS011;8717;53.588;10.176;2024-03-23T14:38:23;2.67;;;1.30;;
17201;SDS011;8717;53.588;10.176;2024-03-23T14:40:49;5.50;;;1.40;;
17201;SDS011;8717;53.588;10.176;2024-03-23T14:43:14;4.37;;;1.30;;
17201;SDS011;8717;53.588;10.176;2024-03-23T14:48:35;4.27;;;0.97;;
17201;SDS011;8717;53.588;10.176;2024-03-23T14:51:01;4.30;;;1.47;;
17201;SDS011;8717;53.588;10.176;2024-03-23T14:53:27;5.13;;;1.40;;
17201;SDS011;8717;53.588;10.176;2024-03-23T14:55:54;2.67;;;1.27;;
17201;SDS011;8717;53.588;10.176;2024-03-23T14:58:20;3.17;;;1.17;;
17201;SDS011;8717;53.588;10.176;2024-03-23T15:00:45;3.57;;;1.23;;
17201;SDS011;8717;53.588;10.176;2024-03-23T15:03:10;4.63;;;1.53;;
17201;SDS011;8717;53.588;10.176;2024-03-23T15:05:36;2.93;;;1.10;;
17201;SDS011;8717;53.588;10.176;2024-03-23T15:08:02;4.20;;;1.53;;
17201;SDS011;8717;53.588;10.176;2024-03-23T15:10:27;7.33;;;1.57;;
17201;SDS011;8717;53.588;10.176;2024-03-23T15:12:53;5.47;;;1.40;;
17201;SDS011;8717;53.588;10.176;2024-03-23T15:15:18;3.50;;;1.50;;
17201;SDS011;8717;53.588;10.176;2024-03-23T15:17:44;4.77;;;1.40;;
17201;SDS011;8717;53.588;10.176;2024-03-23T15:20:10;3.10;;;1.17;;
17201;SDS011;8717;53.588;10.176;2024-03-23T15:22:35;5.80;;;1.27;;
17201;SDS011;8717;53.588;10.176;2024-03-23T15:25:01;2.77;;;1.10;;
17201;SDS011;8717;53.588;10.176;2024-03-23T15:27:26;2.20;;;0.83;;
17201;SDS011;8717;53.588;10.176;2024-03-23T15:29:52;2.60;;;1.00;;
17201;SDS011;8717;53.588;10.176;2024-03-23T15:32:17;4.17;;;1.00;;
17201;SDS011;8717;53.588;10.176;2024-03-23T15:34:43;2.13;;;0.73;;